Time;durP1;ratioP1;P1;durP2;ratioP2;P2;SDS_P1;SDS_P2;PMS_P1;PMS_P2;Temp;Humidity;BMP_temperature;BMP_pressure;BME280_temperature;BME280_humidity;BME280_pressure;Samples;Min_cycle;Max_cycle;Signal;HPM_P1;HPM_P2
2023/10/19 00:01:32;;;;;;;5.23;4.30;;;7.30;99.90;6.40;99988;;;;572148;245;24065;-79
2023/10/19 00:03:56;;;;;;;8.73;4.23;;;7.30;99.90;6.40;99979;;;;585059;245;24123;-78
2023/10/19 00:06:25;;;;;;;5.60;3.67;;;7.30;99.90;6.40;99984;;;;585226;244;24076;-79
2023/10/19 00:08:52;;;;;;;9.43;4.67;;;7.30;99.90;6.40;99985;;;;571913;245;24136;-80
2023/10/19 00:11:26;;;;;;;4.37;3.40;;;7.20;99.90;6.40;99975;;;;572262;245;24054;-79
2023/10/19 00:13:54;;;;;;;7.10;3.27;;;7.20;99.90;6.40;99976;;;;577176;245;24061;-79
2023/10/19 00:16:29;;;;;;;3.93;2.87;;;7.20;99.90;6.40;99973;;;;572328;245;24073;-80
2023/10/19 00:18:59;;;;;;;5.77;2.90;;;7.30;99.90;6.50;99969;;;;572041;245;24100;-80
2023/10/19 00:21:27;;;;;;;5.43;2.57;;;7.30;99.90;6.50;99970;;;;571790;245;24071;-79
2023/10/19 00:23:57;;;;;;;5.13;3.47;;;7.30;99.90;6.50;99977;;;;572084;245;24077;-79
2023/10/19 00:26:30;;;;;;;3.20;2.67;;;7.30;99.90;6.60;99975;;;;576639;245;24060;-79
2023/10/19 00:29:01;;;;;;;3.40;2.83;;;7.40;99.90;6.60;99980;;;;576865;245;24057;-80
2023/10/19 00:31:30;;;;;;;5.73;3.87;;;7.40;99.90;6.60;99973;;;;585506;244;24087;-80
2023/10/19 00:34:01;;;;;;;6.73;3.20;;;7.50;99.90;6.60;99971;;;;576929;243;24122;-79
2023/10/19 00:36:26;;;;;;;2.87;2.63;;;7.50;99.90;6.60;99965;;;;571943;244;24092;-78
2023/10/19 00:38:53;;;;;;;4.13;3.53;;;7.50;99.90;6.60;99962;;;;573244;244;24114;-80
2023/10/19 00:41:29;;;;;;;3.83;2.80;;;7.50;99.90;6.60;99960;;;;572557;244;24126;-80
2023/10/19 00:44:03;;;;;;;4.40;2.40;;;7.50;99.90;6.50;99952;;;;578075;244;24074;-79
2023/10/19 00:46:52;;;;;;;3.93;2.33;;;7.40;99.90;6.50;99951;;;;577032;244;24071;-80
2023/10/19 00:48:58;;;;;;;11.10;2.97;;;7.40;99.90;6.40;99946;;;;569476;244;24112;-79
2023/10/19 00:54:40;;;;;;;4.67;2.30;;;7.30;99.90;6.40;99935;;;;572972;244;24071;-78
2023/10/19 00:57:03;;;;;;;3.90;1.67;;;7.20;99.90;6.40;99938;;;;573407;244;24073;-77
2023/10/19 00:59:30;;;;;;;9.07;2.07;;;7.30;99.90;6.50;99935;;;;572063;244;24074;-80
2023/10/19 01:02:43;;;;;;;2.63;1.40;;;7.30;99.90;6.50;99930;;;;574598;244;24075;-79
2023/10/19 01:04:31;;;;;;;2.37;1.60;;;7.30;99.90;6.50;99928;;;;576859;244;24076;-79
2023/10/19 01:09:27;;;;;;;5.57;1.33;;;7.40;99.90;6.50;99920;;;;560392;244;24076;-79
2023/10/19 01:11:54;;;;;;;2.03;1.10;;;7.30;99.90;6.50;99924;;;;576547;244;24056;-79
2023/10/19 01:14:23;;;;;;;1.87;0.97;;;7.30;99.90;6.50;99913;;;;576848;245;24077;-79
2023/10/19 01:16:51;;;;;;;2.00;1.37;;;7.30;99.90;6.40;99911;;;;575159;245;24101;-78
2023/10/19 01:19:20;;;;;;;5.87;1.10;;;7.30;99.90;6.40;99900;;;;572536;245;24092;-79
2023/10/19 01:21:50;;;;;;;4.07;1.20;;;7.30;99.90;6.50;99904;;;;572076;245;24081;-79
2023/10/19 01:24:16;;;;;;;1.43;1.10;;;7.30;99.90;6.50;99906;;;;571803;245;24065;-77
2023/10/19 01:26:42;;;;;;;1.43;1.00;;;7.40;99.90;6.60;99900;;;;571802;245;24113;-78
2023/10/19 01:29:16;;;;;;;3.90;1.30;;;7.50;99.90;6.70;99898;;;;576957;245;24046;-79
2023/10/19 01:32:05;;;;;;;1.40;1.30;;;7.50;99.90;6.70;99894;;;;571746;245;24079;-79
2023/10/19 01:34:26;;;;;;;1.27;1.17;;;7.50;99.90;6.80;99896;;;;571479;245;24087;-79
2023/10/19 01:36:54;;;;;;;0.80;0.80;;;7.60;99.90;6.80;99899;;;;571748;245;24104;-79
2023/10/19 01:39:20;;;;;;;1.13;1.03;;;7.70;99.90;6.90;99883;;;;571901;245;24096;-79
2023/10/19 01:41:50;;;;;;;5.73;1.40;;;7.70;99.90;7.00;99888;;;;571985;245;24064;-79
2023/10/19 01:44:16;;;;;;;1.10;0.80;;;7.80;99.90;7.00;99881;;;;571940;245;24077;-79
2023/10/19 01:46:45;;;;;;;8.83;1.30;;;7.90;99.90;7.00;99875;;;;571789;245;24077;-80
2023/10/19 01:49:13;;;;;;;2.00;1.23;;;7.90;99.90;7.10;99867;;;;573876;244;24086;-78
2023/10/19 01:51:43;;;;;;;4.27;1.47;;;7.90;99.90;7.20;99869;;;;573434;244;24064;-80
2023/10/19 01:54:09;;;;;;;1.90;1.63;;;8.00;99.90;7.20;99871;;;;586445;244;24127;-79
2023/10/19 01:56:38;;;;;;;2.50;1.77;;;8.00;99.90;7.20;99870;;;;586564;242;24067;-79
2023/10/19 01:59:09;;;;;;;2.47;1.30;;;8.00;99.90;7.10;99856;;;;572323;244;24075;-80
2023/10/19 02:01:33;;;;;;;3.47;1.40;;;8.00;99.90;7.10;99853;;;;576752;244;24110;-79
2023/10/19 02:04:01;;;;;;;2.30;1.70;;;8.00;99.90;7.20;99853;;;;572342;244;24113;-79
2023/10/19 02:06:40;;;;;;;1.40;1.30;;;8.00;99.90;7.20;99847;;;;575049;243;24164;-79
2023/10/19 02:11:46;;;;;;;1.00;0.90;;;8.00;99.90;7.10;99839;;;;580905;244;24060;-79
2023/10/19 02:14:14;;;;;;;4.03;1.53;;;7.90;99.90;7.00;99841;;;;577118;244;24111;-78
2023/10/19 02:16:46;;;;;;;1.23;1.10;;;7.90;99.90;7.00;99840;;;;576902;244;24152;-79
2023/10/19 02:19:13;;;;;;;1.40;1.30;;;7.80;99.90;7.00;99842;;;;575288;244;24245;-80
2023/10/19 02:21:41;;;;;;;1.03;0.87;;;7.80;99.90;7.00;99838;;;;582704;244;24074;-80
2023/10/19 02:24:09;;;;;;;1.43;1.10;;;7.80;99.90;7.10;99836;;;;576674;245;24069;-80
2023/10/19 02:26:37;;;;;;;1.87;1.00;;;7.80;99.90;7.10;99830;;;;574618;245;24087;-80
2023/10/19 02:29:09;;;;;;;1.77;0.97;;;7.90;99.90;7.10;99829;;;;574775;245;24101;-80
2023/10/19 02:31:32;;;;;;;4.10;1.50;;;7.90;99.90;7.20;99824;;;;579895;245;24086;-79
2023/10/19 02:34:00;;;;;;;2.70;1.47;;;8.00;99.90;7.20;99827;;;;567032;245;35104;-78
2023/10/19 02:36:31;;;;;;;2.83;1.47;;;8.00;99.90;7.20;99826;;;;571989;245;24080;-79
2023/10/19 02:39:02;;;;;;;2.17;1.17;;;8.00;99.90;7.20;99826;;;;580165;245;24166;-80
2023/10/19 02:41:30;;;;;;;1.70;1.60;;;8.00;99.90;7.20;99822;;;;576839;245;24083;-80
2023/10/19 02:44:14;;;;;;;3.77;1.30;;;8.00;99.90;7.20;99823;;;;571988;245;24127;-79
2023/10/19 02:46:41;;;;;;;1.20;1.10;;;8.00;99.90;7.20;99821;;;;571649;245;24068;-79
2023/10/19 02:49:11;;;;;;;3.33;1.40;;;8.00;99.90;7.20;99826;;;;572371;245;24069;-79
2023/10/19 02:51:39;;;;;;;1.90;1.07;;;8.00;99.90;7.20;99817;;;;580621;245;24070;-80
2023/10/19 02:54:07;;;;;;;2.73;1.07;;;8.00;99.90;7.20;99817;;;;575009;245;24071;-79
2023/10/19 02:56:42;;;;;;;1.50;1.27;;;8.00;99.90;7.10;99817;;;;576735;244;24112;-78
2023/10/19 02:59:09;;;;;;;1.80;1.53;;;8.00;99.90;7.10;99812;;;;580050;242;24133;-79
2023/10/19 03:01:38;;;;;;;4.70;2.23;;;7.90;99.90;7.10;99809;;;;575947;244;24188;-79
2023/10/19 03:04:05;;;;;;;2.63;2.13;;;7.90;99.90;7.00;99802;;;;573039;244;24189;-77
2023/10/19 03:06:34;;;;;;;1.90;1.80;;;7.80;99.90;7.00;99796;;;;572991;244;24098;-78
2023/10/19 03:09:02;;;;;;;2.27;1.93;;;7.80;99.90;7.00;99796;;;;572828;244;24075;-79
2023/10/19 03:11:29;;;;;;;2.70;2.00;;;7.80;99.90;6.90;99785;;;;574973;244;24082;-79
2023/10/19 03:13:57;;;;;;;2.07;1.63;;;7.70;99.90;6.90;99777;;;;586460;244;24073;-78
2023/10/19 03:16:30;;;;;;;4.70;2.50;;;7.70;99.90;6.90;99778;;;;572633;244;24103;-79
2023/10/19 03:18:55;;;;;;;6.17;3.00;;;7.70;99.90;6.80;99766;;;;572464;244;24110;-78
2023/10/19 03:21:26;;;;;;;3.80;2.80;;;7.60;99.90;6.70;99768;;;;577666;244;24150;-79
2023/10/19 03:23:49;;;;;;;3.10;2.77;;;7.50;99.90;6.70;99773;;;;572484;244;24053;-81
2023/10/19 03:26:36;;;;;;;4.93;3.77;;;8.10;99.90;6.70;99774;;;;572483;244;24054;-79
2023/10/19 03:29:07;;;;;;;13.97;2.97;;;7.50;99.90;6.60;99768;;;;571950;244;24106;-79
2023/10/19 03:31:32;;;;;;;4.87;3.50;;;7.40;99.90;6.60;99759;;;;571930;244;24064;-79
2023/10/19 03:34:04;;;;;;;4.90;3.20;;;7.40;99.90;6.70;99752;;;;572190;244;24087;-79
2023/10/19 03:36:28;;;;;;;6.33;3.30;;;7.50;99.90;6.70;99758;;;;571893;245;24134;-79
2023/10/19 03:38:59;;;;;;;9.13;3.87;;;7.50;99.90;6.70;99752;;;;572362;245;24157;-80
2023/10/19 03:41:26;;;;;;;4.53;3.13;;;7.50;99.90;6.70;99754;;;;571748;245;24076;-78
2023/10/19 03:43:54;;;;;;;3.57;2.67;;;7.50;99.90;6.70;99749;;;;571996;245;24069;-79
2023/10/19 03:46:30;;;;;;;5.50;2.93;;;7.50;99.90;6.80;99759;;;;574656;245;24104;-80
2023/10/19 03:49:07;;;;;;;3.27;2.30;;;7.60;99.90;6.80;99749;;;;572230;245;24092;-80
2023/10/19 03:51:39;;;;;;;6.80;3.70;;;7.60;99.90;6.80;99747;;;;572205;245;24068;-80
2023/10/19 03:54:01;;;;;;;5.10;3.63;;;7.60;99.90;6.80;99748;;;;571466;245;24108;-81
2023/10/19 03:56:24;;;;;;;4.40;3.13;;;7.60;99.90;6.80;99743;;;;571963;245;24077;-80
2023/10/19 03:58:52;;;;;;;4.40;3.57;;;7.60;99.90;6.80;99741;;;;572104;245;24065;-80
2023/10/19 04:01:20;;;;;;;7.70;3.50;;;7.60;99.90;6.70;99751;;;;572031;245;24111;-80
2023/10/19 04:03:51;;;;;;;4.10;2.87;;;7.60;99.90;6.80;99752;;;;571892;245;24079;-79
2023/10/19 04:06:16;;;;;;;5.63;3.27;;;7.60;99.90;6.80;99741;;;;571829;245;24133;-81
2023/10/19 04:08:50;;;;;;;5.40;3.30;;;7.60;99.90;6.80;99745;;;;571787;245;24098;-80
2023/10/19 04:11:21;;;;;;;7.47;3.07;;;7.60;99.90;6.80;99742;;;;572743;244;24072;-81
2023/10/19 04:13:40;;;;;;;6.77;3.03;;;7.60;99.90;6.80;99740;;;;573089;244;24117;-79
2023/10/19 04:16:10;;;;;;;3.43;2.60;;;7.60;99.90;6.80;99738;;;;573334;244;24048;-79
2023/10/19 04:18:38;;;;;;;3.40;3.10;;;7.60;99.90;6.80;99736;;;;573043;244;24094;-79
2023/10/19 04:21:05;;;;;;;4.93;3.10;;;7.60;99.90;6.80;99733;;;;572664;244;24102;-80
2023/10/19 04:23:34;;;;;;;3.80;3.03;;;7.60;99.90;6.70;99736;;;;572575;244;24070;-79
2023/10/19 04:26:10;;;;;;;5.53;3.27;;;7.60;99.90;6.70;99727;;;;572331;244;24088;-80
2023/10/19 04:28:44;;;;;;;4.07;2.87;;;7.50;99.90;6.70;99724;;;;572231;244;24088;-79
2023/10/19 04:31:07;;;;;;;3.83;3.43;;;7.40;99.90;6.60;99724;;;;576749;244;24100;-80
2023/10/19 04:33:35;;;;;;;5.30;3.40;;;7.40;99.90;6.60;99723;;;;572322;244;24065;-80
2023/10/19 04:36:03;;;;;;;6.70;4.77;;;7.40;99.90;6.60;99731;;;;572388;244;24046;-80
2023/10/19 04:38:33;;;;;;;8.30;4.30;;;7.40;99.90;6.50;99725;;;;572178;244;24065;-80
2023/10/19 04:41:11;;;;;;;7.83;5.33;;;7.30;99.90;6.50;99725;;;;572049;244;24060;-79
2023/10/19 04:43:36;;;;;;;9.60;4.20;;;7.30;99.90;6.50;99718;;;;585586;238;24080;-80
2023/10/19 04:46:12;;;;;;;5.67;4.03;;;7.30;99.90;6.50;99718;;;;574922;244;24069;-78
2023/10/19 04:48:42;;;;;;;7.87;4.10;;;7.30;99.90;6.50;99718;;;;585582;245;24060;-80
2023/10/19 04:51:10;;;;;;;5.37;3.17;;;7.30;99.90;6.50;99709;;;;572254;245;24064;-80
2023/10/19 04:53:39;;;;;;;8.50;4.00;;;7.30;99.90;6.50;99712;;;;572341;245;24083;-81
2023/10/19 04:56:08;;;;;;;5.10;3.33;;;7.30;99.90;6.50;99709;;;;586049;245;24136;-80
2023/10/19 04:58:36;;;;;;;6.77;5.07;;;7.30;99.90;6.50;99708;;;;570031;245;35102;-81
2023/10/19 05:01:03;;;;;;;6.83;4.10;;;7.30;99.90;6.40;99713;;;;585761;243;24078;-81
2023/10/19 05:03:35;;;;;;;5.53;3.50;;;7.30;99.90;6.40;99713;;;;572117;245;24061;-80
2023/10/19 05:06:01;;;;;;;4.00;3.53;;;7.30;99.90;6.40;99717;;;;585323;239;24072;-81
2023/10/19 05:08:31;;;;;;;5.17;4.13;;;7.30;99.90;6.40;99706;;;;572103;240;24086;-80
2023/10/19 05:10:59;;;;;;;5.00;3.83;;;7.20;99.90;6.40;99700;;;;571870;245;24091;-79
2023/10/19 05:13:27;;;;;;;8.63;5.23;;;7.20;99.90;6.40;99714;;;;576960;245;24084;-81
2023/10/19 05:15:54;;;;;;;10.50;5.13;;;7.20;99.90;6.40;99715;;;;576672;245;24091;-79
2023/10/19 05:18:25;;;;;;;6.87;5.60;;;7.20;99.90;6.40;99715;;;;576899;245;24068;-80
2023/10/19 05:20:55;;;;;;;9.70;5.70;;;7.20;99.90;6.40;99717;;;;574615;245;24137;-80
2023/10/19 05:23:19;;;;;;;8.37;5.37;;;7.20;99.90;6.30;99716;;;;578137;244;24120;-80
2023/10/19 05:25:45;;;;;;;12.90;7.33;;;7.10;99.90;6.30;99711;;;;573324;244;24087;-80
2023/10/19 05:28:14;;;;;;;6.60;4.73;;;7.10;99.90;6.30;99723;;;;573184;244;24067;-80
2023/10/19 05:30:41;;;;;;;9.40;7.03;;;7.10;99.90;6.30;99715;;;;572877;244;24106;-79
2023/10/19 05:33:09;;;;;;;6.93;6.07;;;7.10;99.90;6.30;99714;;;;572589;244;24128;-79
2023/10/19 05:35:41;;;;;;;8.63;5.87;;;7.10;99.90;6.30;99706;;;;572449;244;24107;-79
2023/10/19 05:38:05;;;;;;;8.17;5.07;;;7.10;99.90;6.20;99716;;;;572070;244;24088;-80
2023/10/19 05:40:33;;;;;;;6.10;4.20;;;7.00;99.90;6.20;99715;;;;572438;244;24104;-79
2023/10/19 05:43:05;;;;;;;4.67;4.13;;;7.00;99.90;6.20;99710;;;;573864;244;24058;-80
2023/10/19 05:45:29;;;;;;;5.30;3.97;;;7.00;99.90;6.20;99710;;;;572050;244;24085;-79
2023/10/19 05:47:58;;;;;;;4.80;3.73;;;7.00;99.90;6.20;99713;;;;572299;244;24101;-79
2023/10/19 05:50:28;;;;;;;4.10;2.83;;;7.00;99.90;6.20;99723;;;;586065;243;24063;-79
2023/10/19 05:52:54;;;;;;;3.13;2.67;;;7.00;99.90;6.20;99718;;;;572486;244;25115;-80
2023/10/19 05:55:22;;;;;;;3.87;2.60;;;7.00;99.90;6.20;99720;;;;572579;244;24055;-80
2023/10/19 05:57:54;;;;;;;2.57;2.13;;;7.00;99.90;6.20;99716;;;;572575;244;24044;-79
2023/10/19 06:00:21;;;;;;;2.87;2.60;;;7.00;99.90;6.20;99712;;;;572188;245;24086;-79
2023/10/19 06:02:47;;;;;;;2.97;2.30;;;7.00;99.90;6.20;99724;;;;571902;245;24075;-80
2023/10/19 06:05:16;;;;;;;5.83;2.70;;;7.10;99.90;6.30;99728;;;;574453;245;24062;-78
2023/10/19 06:07:46;;;;;;;2.97;2.67;;;7.00;99.90;6.30;99731;;;;576857;245;24090;-79
2023/10/19 06:10:18;;;;;;;3.20;2.90;;;7.10;99.90;6.30;99717;;;;573390;245;24081;-80
2023/10/19 06:12:46;;;;;;;3.93;2.93;;;7.10;99.90;6.30;99717;;;;577230;245;24112;-79
2023/10/19 06:15:14;;;;;;;3.43;2.40;;;7.10;99.90;6.40;99720;;;;574901;245;24067;-79
2023/10/19 06:17:42;;;;;;;4.63;2.90;;;7.10;99.90;6.40;99720;;;;577134;245;24088;-80
2023/10/19 06:20:19;;;;;;;7.50;2.33;;;7.20;99.90;6.50;99726;;;;574982;245;24097;-78
2023/10/19 06:22:38;;;;;;;2.77;2.10;;;7.20;99.90;6.50;99727;;;;573653;245;24140;-80
2023/10/19 06:25:10;;;;;;;2.33;1.70;;;7.30;99.90;6.50;99732;;;;571955;245;24075;-80
2023/10/19 06:27:38;;;;;;;2.57;1.10;;;7.30;99.90;6.60;99739;;;;585213;245;24084;-80
2023/10/19 06:30:03;;;;;;;1.97;1.67;;;7.40;99.90;6.60;99733;;;;571823;245;24089;-80
2023/10/19 06:32:31;;;;;;;1.40;1.13;;;7.40;99.90;6.60;99744;;;;571631;245;24085;-80
2023/10/19 06:34:59;;;;;;;1.03;1.03;;;7.40;99.90;6.60;99742;;;;572970;244;24095;-79
2023/10/19 06:37:30;;;;;;;2.33;1.53;;;7.30;99.90;6.50;99738;;;;573086;244;24141;-80
2023/10/19 06:39:55;;;;;;;0.90;0.90;;;7.30;99.90;6.50;99742;;;;586199;244;24070;-80
2023/10/19 06:42:25;;;;;;;0.87;0.80;;;7.30;99.90;6.40;99746;;;;572728;244;24062;-80
2023/10/19 06:44:53;;;;;;;1.83;1.23;;;7.30;99.90;6.40;99740;;;;572321;244;24064;-79
2023/10/19 06:47:22;;;;;;;1.30;1.20;;;7.20;99.90;6.30;99739;;;;572401;244;24098;-79
2023/10/19 06:49:48;;;;;;;0.97;0.97;;;7.20;99.90;6.40;99738;;;;572374;244;24078;-79
2023/10/19 06:52:15;;;;;;;1.90;1.30;;;7.10;99.90;6.40;99733;;;;572174;244;24063;-79
2023/10/19 06:54:43;;;;;;;1.67;1.57;;;7.20;99.90;6.30;99743;;;;572653;244;24066;-79
2023/10/19 06:57:12;;;;;;;1.20;1.00;;;7.20;99.90;6.40;99745;;;;577521;244;24066;-77
2023/10/19 06:59:39;;;;;;;2.80;1.60;;;7.20;99.90;6.40;99734;;;;577397;244;24153;-80
2023/10/19 07:02:07;;;;;;;1.37;1.27;;;7.20;99.90;6.40;99744;;;;577008;244;24049;-80
2023/10/19 07:04:35;;;;;;;3.23;1.30;;;7.40;99.90;6.30;99744;;;;577183;244;24064;-79
2023/10/19 07:07:03;;;;;;;3.53;1.33;;;7.10;99.90;6.30;99733;;;;572301;244;24061;-79
2023/10/19 07:09:31;;;;;;;1.67;1.57;;;7.10;99.90;6.40;99739;;;;571973;244;24108;-79
2023/10/19 07:12:00;;;;;;;2.13;1.70;;;7.10;99.90;6.30;99728;;;;572504;245;24096;-79
2023/10/19 07:14:27;;;;;;;1.47;1.37;;;7.10;99.90;6.40;99739;;;;572204;245;24071;-79
2023/10/19 07:16:55;;;;;;;1.90;1.80;;;7.20;99.90;6.40;99738;;;;572080;245;24038;-80
2023/10/19 07:19:26;;;;;;;3.97;2.43;;;7.20;99.90;6.40;99733;;;;572337;245;24050;-79
2023/10/19 07:21:57;;;;;;;1.90;1.80;;;7.20;99.90;6.40;99726;;;;573519;245;24113;-78
2023/10/19 07:24:19;;;;;;;2.43;1.63;;;7.20;99.90;6.50;99737;;;;571706;245;24118;-79
2023/10/19 07:27:07;;;;;;;2.07;1.70;;;7.30;99.90;6.50;99727;;;;571886;245;24093;-79
2023/10/19 07:29:33;;;;;;;1.80;1.70;;;7.30;99.90;6.50;99732;;;;571750;245;24085;-79
2023/10/19 07:32:01;;;;;;;2.43;1.77;;;7.30;99.90;6.50;99730;;;;571711;245;24062;-78
2023/10/19 07:34:29;;;;;;;2.13;1.73;;;7.30;99.90;6.50;99728;;;;571867;245;24116;-79
2023/10/19 07:36:58;;;;;;;6.37;1.67;;;7.30;99.90;6.60;99718;;;;574514;245;24069;-79
2023/10/19 07:39:27;;;;;;;4.23;1.03;;;7.30;99.90;6.60;99738;;;;572077;245;24064;-78
2023/10/19 07:41:53;;;;;;;2.27;1.40;;;7.40;99.90;6.60;99729;;;;571950;245;24080;-79
2023/10/19 07:44:21;;;;;;;4.07;1.57;;;7.40;99.90;6.70;99727;;;;572222;245;24082;-80
2023/10/19 07:46:49;;;;;;;1.20;1.20;;;7.50;99.90;6.80;99717;;;;573036;244;24107;-78
2023/10/19 07:49:20;;;;;;;0.60;0.60;;;7.60;99.90;6.90;99712;;;;573092;244;24063;-78
2023/10/19 07:51:50;;;;;;;0.80;0.80;;;7.70;99.90;6.90;99731;;;;572610;244;24096;-79
2023/10/19 07:54:19;;;;;;;0.80;0.80;;;7.70;99.90;7.00;99715;;;;577873;244;24071;-79
2023/10/19 07:56:43;;;;;;;0.70;0.70;;;7.70;99.90;7.00;99710;;;;572581;244;24075;-79
2023/10/19 07:59:15;;;;;;;0.77;0.77;;;7.80;99.90;7.10;99718;;;;572925;244;24103;-80
2023/10/19 08:01:40;;;;;;;1.63;1.20;;;7.80;99.90;7.10;99702;;;;573444;244;24189;-80
2023/10/19 08:04:12;;;;;;;1.40;1.00;;;7.90;99.90;7.10;99701;;;;577670;244;24079;-79
2023/10/19 08:06:37;;;;;;;0.77;0.77;;;7.80;99.90;7.10;99697;;;;585784;238;24102;-78
2023/10/19 08:09:06;;;;;;;1.07;0.97;;;8.00;99.90;7.20;99700;;;;572126;244;24131;-79
2023/10/19 08:11:33;;;;;;;1.40;1.20;;;8.00;99.90;7.20;99703;;;;571993;244;24068;-78
2023/10/19 08:14:01;;;;;;;1.50;1.40;;;8.00;99.90;7.20;99706;;;;572118;244;24089;-79
2023/10/19 08:16:29;;;;;;;1.27;0.80;;;8.00;99.90;7.20;99694;;;;572216;244;24084;-79
2023/10/19 08:18:57;;;;;;;1.30;1.20;;;8.00;99.90;7.20;99701;;;;572088;244;24054;-79
2023/10/19 08:21:28;;;;;;;1.57;1.47;;;8.00;99.90;7.30;99700;;;;572176;244;24057;-80
2023/10/19 08:23:53;;;;;;;1.00;1.00;;;8.00;99.90;7.30;99700;;;;572151;245;24152;-79
2023/10/19 08:26:21;;;;;;;3.43;1.63;;;8.00;99.90;7.30;99699;;;;572309;245;24076;-78
2023/10/19 08:28:49;;;;;;;5.70;2.70;;;8.00;99.90;7.30;99700;;;;567344;245;35155;-79
2023/10/19 08:31:17;;;;;;;1.67;1.33;;;8.10;99.90;7.30;99684;;;;572364;245;24053;-77
2023/10/19 08:33:46;;;;;;;1.20;1.07;;;8.10;99.90;7.30;99680;;;;572337;245;24057;-79
2023/10/19 08:36:19;;;;;;;2.20;1.27;;;8.10;99.90;7.30;99685;;;;571988;245;24069;-78
2023/10/19 08:38:51;;;;;;;1.20;1.17;;;8.10;99.90;7.40;99692;;;;576453;245;24083;-78
2023/10/19 08:41:15;;;;;;;0.87;0.87;;;8.10;99.90;7.30;99687;;;;585000;245;24091;-80
2023/10/19 08:43:43;;;;;;;2.07;1.40;;;8.10;99.90;7.30;99683;;;;574780;245;25114;-79
2023/10/19 08:46:14;;;;;;;1.37;1.10;;;8.10;99.90;7.30;99678;;;;571804;245;24143;-78
2023/10/19 08:48:41;;;;;;;2.83;1.40;;;8.10;99.90;7.30;99672;;;;571897;245;24177;-78
2023/10/19 08:51:12;;;;;;;2.80;1.17;;;8.10;99.90;7.40;99664;;;;571972;245;24087;-79
2023/10/19 08:53:40;;;;;;;0.80;0.80;;;8.10;99.90;7.30;99674;;;;577240;245;24135;-79
2023/10/19 08:56:12;;;;;;;1.50;1.40;;;8.20;99.90;7.40;99669;;;;576719;245;24093;-78
2023/10/19 08:58:36;;;;;;;2.33;1.40;;;8.10;99.90;7.40;99662;;;;577801;244;24066;-79
2023/10/19 09:01:07;;;;;;;1.17;1.00;;;8.20;99.90;7.40;99678;;;;573406;244;24064;-79
2023/10/19 09:03:35;;;;;;;1.67;0.73;;;8.20;99.90;7.40;99654;;;;573080;244;24132;-79
2023/10/19 09:06:05;;;;;;;1.10;0.90;;;8.20;99.90;7.40;99660;;;;573062;244;24055;-78
2023/10/19 09:08:40;;;;;;;0.63;0.63;;;8.20;99.90;7.40;99659;;;;586284;243;24164;-78
2023/10/19 09:11:11;;;;;;;2.47;1.50;;;8.20;99.90;7.40;99654;;;;586177;243;24119;-80
2023/10/19 09:13:48;;;;;;;1.30;1.13;;;8.20;99.90;7.50;99652;;;;574945;244;24093;-78
2023/10/19 09:16:14;;;;;;;1.07;0.97;;;8.20;99.90;7.50;99658;;;;576873;244;24120;-78
2023/10/19 09:18:44;;;;;;;1.00;0.97;;;8.30;99.90;7.50;99647;;;;574966;244;24144;-79
2023/10/19 09:21:13;;;;;;;1.27;1.17;;;8.30;99.90;7.60;99661;;;;572019;244;24069;-77
2023/10/19 09:23:37;;;;;;;3.17;1.77;;;8.30;99.90;7.50;99641;;;;572154;244;24072;-78
2023/10/19 09:26:07;;;;;;;5.97;1.93;;;8.30;99.90;7.50;99648;;;;572586;244;24081;-78
2023/10/19 09:28:34;;;;;;;3.43;1.97;;;8.30;99.90;7.50;99644;;;;572515;244;24062;-78
2023/10/19 09:31:03;;;;;;;1.33;0.90;;;8.40;99.90;7.60;99645;;;;575247;244;24098;-78
2023/10/19 09:33:30;;;;;;;2.67;1.67;;;8.30;99.90;7.60;99638;;;;572408;245;24139;-80
2023/10/19 09:36:00;;;;;;;1.23;1.13;;;8.40;99.90;7.70;99630;;;;574684;245;24068;-80
2023/10/19 09:38:26;;;;;;;6.73;1.03;;;8.50;99.90;7.70;99635;;;;585521;245;24091;-78
2023/10/19 09:40:54;;;;;;;4.63;1.20;;;8.50;99.90;7.80;99630;;;;576910;245;24068;-79
2023/10/19 09:43:26;;;;;;;1.70;1.43;;;8.60;99.90;7.80;99625;;;;576748;244;24148;-79
2023/10/19 09:45:57;;;;;;;0.83;0.83;;;8.60;99.90;7.90;99625;;;;576673;245;24064;-78
2023/10/19 09:48:21;;;;;;;1.13;0.97;;;8.60;99.90;7.90;99618;;;;574482;245;24090;-79
2023/10/19 09:50:55;;;;;;;1.13;1.03;;;8.70;99.90;7.90;99617;;;;564406;249;24140;-78
2023/10/19 09:53:26;;;;;;;1.10;1.00;;;8.70;99.90;7.90;99620;;;;567018;249;24152;-79
2023/10/19 09:56:04;;;;;;;1.50;1.17;;;8.70;99.90;8.00;99610;;;;566438;249;24099;-78
2023/10/19 09:58:40;;;;;;;1.83;1.73;;;8.80;99.90;8.10;99608;;;;575944;242;24091;-79
2023/10/19 10:01:11;;;;;;;1.53;1.07;;;9.00;99.90;8.20;99609;;;;567630;242;25135;-79
2023/10/19 10:03:54;;;;;;;1.43;1.37;;;9.00;99.90;8.40;99607;;;;565442;249;24136;-79
2023/10/19 10:06:34;;;;;;;1.60;1.50;;;9.10;99.90;8.40;99602;;;;576122;245;24148;-79
2023/10/19 10:09:04;;;;;;;0.73;0.73;;;9.20;99.90;8.60;99603;;;;564789;248;24204;-79
2023/10/19 10:11:29;;;;;;;0.90;0.90;;;9.30;99.90;8.60;99602;;;;576578;248;24104;-78
2023/10/19 10:13:57;;;;;;;0.70;0.70;;;9.40;99.90;8.50;99592;;;;566643;248;24144;-80
2023/10/19 10:16:28;;;;;;;1.40;1.07;;;9.30;99.90;8.40;99591;;;;567654;248;24174;-79
2023/10/19 10:18:59;;;;;;;1.20;1.10;;;9.20;99.90;8.40;99597;;;;565677;248;24097;-79
2023/10/19 10:21:30;;;;;;;1.40;1.20;;;9.10;99.90;8.40;99576;;;;567578;248;24169;-80
2023/10/19 10:23:55;;;;;;;1.07;1.07;;;9.20;99.90;8.50;99584;;;;567487;248;24099;-80
2023/10/19 10:26:26;;;;;;;0.80;0.60;;;9.20;99.90;8.60;99579;;;;566559;248;24098;-79
2023/10/19 10:29:11;;;;;;;3.47;1.00;;;9.50;99.90;8.70;99570;;;;567507;249;24103;-78
2023/10/19 10:31:48;;;;;;;3.73;1.23;;;9.60;99.90;8.80;99579;;;;566337;248;24129;-81
2023/10/19 10:34:12;;;;;;;0.70;0.70;;;9.60;99.90;8.90;99569;;;;575949;247;24137;-81
2023/10/19 10:37:08;;;;;;;1.97;1.53;;;9.60;99.90;8.90;99560;;;;563405;249;24103;-80
2023/10/19 10:39:34;;;;;;;2.30;0.90;;;9.60;99.90;8.90;99560;;;;567382;249;24190;-77
2023/10/19 10:42:03;;;;;;;0.70;0.70;;;9.70;99.90;9.00;99555;;;;565687;249;24146;-79
2023/10/19 10:44:43;;;;;;;1.80;1.70;;;9.70;99.90;9.00;99545;;;;565990;249;24101;-79
2023/10/19 10:47:11;;;;;;;1.40;1.30;;;9.80;99.90;9.20;99555;;;;576060;246;24105;-78
2023/10/19 10:49:51;;;;;;;1.50;1.03;;;9.90;99.90;9.10;99554;;;;566729;249;24113;-81
2023/10/19 10:52:34;;;;;;;2.47;1.03;;;9.90;99.90;9.10;99546;;;;567357;249;24094;-79
2023/10/19 10:55:10;;;;;;;1.63;1.37;;;9.90;99.90;9.10;99550;;;;567014;249;24148;-78
2023/10/19 10:57:36;;;;;;;1.70;1.60;;;9.90;99.90;9.00;99545;;;;566113;249;24176;-79
2023/10/19 11:00:15;;;;;;;1.03;1.03;;;9.80;99.90;9.00;99539;;;;565598;249;25146;-79
2023/10/19 11:02:39;;;;;;;1.90;1.70;;;9.80;99.90;9.00;99532;;;;567158;249;24124;-80
2023/10/19 11:05:11;;;;;;;1.60;1.50;;;9.90;99.90;9.10;99531;;;;566693;249;24117;-79
2023/10/19 11:07:39;;;;;;;1.30;1.30;;;9.90;99.90;9.10;99526;;;;565633;249;24158;-79
2023/10/19 11:10:06;;;;;;;1.13;1.00;;;9.90;99.90;9.00;99528;;;;565406;249;24144;-80
2023/10/19 11:12:37;;;;;;;1.50;1.40;;;9.80;99.90;8.80;99526;;;;575574;246;24116;-79
2023/10/19 11:15:10;;;;;;;3.13;1.50;;;9.70;99.90;8.70;99527;;;;565662;249;24085;-79
2023/10/19 11:17:45;;;;;;;2.77;0.90;;;9.60;99.90;8.60;99515;;;;566963;249;24167;-79
2023/10/19 11:20:14;;;;;;;5.30;2.27;;;9.40;99.90;8.50;99518;;;;567437;247;24124;-78
2023/10/19 11:22:40;;;;;;;0.93;0.80;;;9.40;99.90;8.50;99507;;;;567230;248;24111;-80
2023/10/19 11:25:30;;;;;;;2.30;1.60;;;9.30;99.90;8.50;99504;;;;566188;248;24101;-78
2023/10/19 11:28:01;;;;;;;2.00;1.00;;;9.30;99.90;8.50;99504;;;;567894;248;24144;-77
2023/10/19 11:30:31;;;;;;;1.97;1.13;;;9.30;99.90;8.40;99511;;;;568123;248;24138;-78
2023/10/19 11:33:02;;;;;;;1.53;1.33;;;9.20;99.90;8.40;99498;;;;567928;247;24100;-78
2023/10/19 11:35:29;;;;;;;1.37;0.80;;;9.10;99.90;8.30;99495;;;;567910;248;24105;-79
2023/10/19 11:37:56;;;;;;;3.50;1.10;;;9.10;99.90;8.30;99497;;;;567850;248;24158;-78
2023/10/19 11:40:27;;;;;;;0.70;0.70;;;9.10;99.90;8.30;99496;;;;567535;249;24150;-78
2023/10/19 11:43:00;;;;;;;1.30;1.20;;;9.10;99.90;8.30;99490;;;;566913;249;24179;-79
2023/10/19 11:45:26;;;;;;;2.43;1.30;;;9.10;99.90;8.40;99487;;;;567372;249;24099;-78
2023/10/19 11:47:55;;;;;;;2.03;1.40;;;9.20;99.90;8.50;99492;;;;565683;249;24101;-79
2023/10/19 11:50:19;;;;;;;2.40;1.50;;;9.20;99.90;8.50;99492;;;;566876;249;24158;-78
2023/10/19 11:52:48;;;;;;;1.20;1.20;;;9.40;99.90;8.60;99491;;;;566093;249;24103;-78